sensor_id;sensor_type;location;lat;lon;timestamp;temperature;humidity
6210;DHT22;3138;52.550;13.148;2023-07-29T00:01:58;15.90;99.90
6210;DHT22;3138;52.550;13.148;2023-07-29T00:04:25;15.90;99.90
6210;DHT22;3138;52.550;13.148;2023-07-29T00:06:52;15.90;99.90
6210;DHT22;3138;52.550;13.148;2023-07-29T00:09:19;15.80;99.90
6210;DHT22;3138;52.550;13.148;2023-07-29T00:11:45;15.80;99.90
6210;DHT22;3138;52.550;13.148;2023-07-29T00:14:14;15.80;99.90
6210;DHT22;3138;52.550;13.148;2023-07-29T00:16:40;15.80;99.90
6210;DHT22;3138;52.550;13.148;2023-07-29T00:19:08;15.80;99.90
6210;DHT22;3138;52.550;13.148;2023-07-29T00:21:35;15.80;99.90
6210;DHT22;3138;52.550;13.148;2023-07-29T00:24:02;15.70;99.90
6210;DHT22;3138;52.550;13.148;2023-07-29T00:26:28;15.70;99.90
6210;DHT22;3138;52.550;13.148;2023-07-29T00:28:55;15.80;99.90
6210;DHT22;3138;52.550;13.148;2023-07-29T00:31:24;15.80;99.90
6210;DHT22;3138;52.550;13.148;2023-07-29T00:33:50;15.80;99.90
6210;DHT22;3138;52.550;13.148;2023-07-29T00:36:18;15.60;99.90
6210;DHT22;3138;52.550;13.148;2023-07-29T00:38:45;15.60;99.90
6210;DHT22;3138;52.550;13.148;2023-07-29T00:41:12;15.60;99.90
6210;DHT22;3138;52.550;13.148;2023-07-29T00:43:40;15.50;99.90
6210;DHT22;3138;52.550;13.148;2023-07-29T00:46:08;15.40;99.90
6210;DHT22;3138;52.550;13.148;2023-07-29T00:48:37;15.50;99.90
6210;DHT22;3138;52.550;13.148;2023-07-29T00:51:04;15.40;99.90
6210;DHT22;3138;52.550;13.148;2023-07-29T00:53:31;15.30;99.90
6210;DHT22;3138;52.550;13.148;2023-07-29T00:55:58;15.40;99.90
6210;DHT22;3138;52.550;13.148;2023-07-29T00:58:25;15.40;99.90
6210;DHT22;3138;52.550;13.148;2023-07-29T01:00:52;15.40;99.90
6210;DHT22;3138;52.550;13.148;2023-07-29T01:03:19;15.40;99.90
6210;DHT22;3138;52.550;13.148;2023-07-29T01:05:59;15.50;99.90
6210;DHT22;3138;52.550;13.148;2023-07-29T01:08:33;15.50;99.90
6210;DHT22;3138;52.550;13.148;2023-07-29T01:11:13;15.50;99.90
6210;DHT22;3138;52.550;13.148;2023-07-29T01:13:47;15.40;99.90
6210;DHT22;3138;52.550;13.148;2023-07-29T01:16:24;15.30;99.90
6210;DHT22;3138;52.550;13.148;2023-07-29T01:18:54;15.30;99.90
6210;DHT22;3138;52.550;13.148;2023-07-29T01:21:26;15.20;99.90
6210;DHT22;3138;52.550;13.148;2023-07-29T01:23:58;15.20;99.90
6210;DHT22;3138;52.550;13.148;2023-07-29T01:26:25;15.30;99.90
6210;DHT22;3138;52.550;13.148;2023-07-29T01:28:54;15.20;99.90
6210;DHT22;3138;52.550;13.148;2023-07-29T01:31:28;15.20;99.90
6210;DHT22;3138;52.550;13.148;2023-07-29T01:34:01;15.10;99.90
6210;DHT22;3138;52.550;13.148;2023-07-29T01:36:31;15.10;99.90
6210;DHT22;3138;52.550;13.148;2023-07-29T01:39:02;15.10;99.90
6210;DHT22;3138;52.550;13.148;2023-07-29T01:41:29;15.10;99.90
6210;DHT22;3138;52.550;13.148;2023-07-29T01:43:57;15.00;99.90
6210;DHT22;3138;52.550;13.148;2023-07-29T01:46:25;15.00;99.90
6210;DHT22;3138;52.550;13.148;2023-07-29T01:48:51;15.10;99.90
6210;DHT22;3138;52.550;13.148;2023-07-29T01:51:18;15.00;99.90
6210;DHT22;3138;52.550;13.148;2023-07-29T01:53:46;15.00;99.90
6210;DHT22;3138;52.550;13.148;2023-07-29T01:56:17;14.90;99.90
6210;DHT22;3138;52.550;13.148;2023-07-29T01:58:45;14.90;99.90
6210;DHT22;3138;52.550;13.148;2023-07-29T02:01:11;14.80;99.90
6210;DHT22;3138;52.550;13.148;2023-07-29T02:03:39;14.90;99.90
6210;DHT22;3138;52.550;13.148;2023-07-29T02:06:06;14.90;99.90
6210;DHT22;3138;52.550;13.148;2023-07-29T02:08:32;14.90;99.90
6210;DHT22;3138;52.550;13.148;2023-07-29T02:10:59;14.90;99.90
6210;DHT22;3138;52.550;13.148;2023-07-29T02:13:27;15.10;99.90
6210;DHT22;3138;52.550;13.148;2023-07-29T02:15:54;15.10;99.90
6210;DHT22;3138;52.550;13.148;2023-07-29T02:18:21;15.10;99.90
6210;DHT22;3138;52.550;13.148;2023-07-29T02:20:48;15.00;99.90
6210;DHT22;3138;52.550;13.148;2023-07-29T02:23:15;15.10;99.90
6210;DHT22;3138;52.550;13.148;2023-07-29T02:25:42;15.20;99.90
6210;DHT22;3138;52.550;13.148;2023-07-29T02:28:12;15.00;99.90
6210;DHT22;3138;52.550;13.148;2023-07-29T02:30:41;14.90;99.90
6210;DHT22;3138;52.550;13.148;2023-07-29T02:33:10;14.90;99.90
6210;DHT22;3138;52.550;13.148;2023-07-29T02:35:36;15.00;99.90
6210;DHT22;3138;52.550;13.148;2023-07-29T02:38:03;15.00;99.90
6210;DHT22;3138;52.550;13.148;2023-07-29T02:40:30;14.90;99.90
6210;DHT22;3138;52.550;13.148;2023-07-29T02:42:57;14.90;99.90
6210;DHT22;3138;52.550;13.148;2023-07-29T02:45:24;14.90;99.90
6210;DHT22;3138;52.550;13.148;2023-07-29T02:47:52;14.80;99.90
6210;DHT22;3138;52.550;13.148;2023-07-29T02:50:19;14.70;99.90
6210;DHT22;3138;52.550;13.148;2023-07-29T02:52:46;14.70;99.90
6210;DHT22;3138;52.550;13.148;2023-07-29T02:55:13;14.60;99.90
6210;DHT22;3138;52.550;13.148;2023-07-29T02:57:40;14.60;99.90
6210;DHT22;3138;52.550;13.148;2023-07-29T03:00:08;14.50;99.90
6210;DHT22;3138;52.550;13.148;2023-07-29T03:02:36;14.50;99.90
6210;DHT22;3138;52.550;13.148;2023-07-29T03:05:05;14.50;99.90
6210;DHT22;3138;52.550;13.148;2023-07-29T03:07:32;14.50;99.90
6210;DHT22;3138;52.550;13.148;2023-07-29T03:09:59;14.50;99.90
6210;DHT22;3138;52.550;13.148;2023-07-29T03:12:26;14.50;99.90
6210;DHT22;3138;52.550;13.148;2023-07-29T03:14:53;14.50;99.90
6210;DHT22;3138;52.550;13.148;2023-07-29T03:17:21;14.50;99.90
6210;DHT22;3138;52.550;13.148;2023-07-29T03:19:48;14.60;99.90
6210;DHT22;3138;52.550;13.148;2023-07-29T03:22:17;14.50;99.90
6210;DHT22;3138;52.550;13.148;2023-07-29T03:24:43;14.50;99.90
6210;DHT22;3138;52.550;13.148;2023-07-29T03:27:10;14.50;99.90
6210;DHT22;3138;52.550;13.148;2023-07-29T03:29:37;14.70;99.90
6210;DHT22;3138;52.550;13.148;2023-07-29T03:32:04;14.60;99.90
6210;DHT22;3138;52.550;13.148;2023-07-29T03:34:31;14.60;99.90
6210;DHT22;3138;52.550;13.148;2023-07-29T03:36:59;14.70;99.90
6210;DHT22;3138;52.550;13.148;2023-07-29T03:39:27;14.70;99.90
6210;DHT22;3138;52.550;13.148;2023-07-29T03:41:54;14.80;99.90
6210;DHT22;3138;52.550;13.148;2023-07-29T03:44:21;14.70;99.90
6210;DHT22;3138;52.550;13.148;2023-07-29T03:46:48;14.90;99.90
6210;DHT22;3138;52.550;13.148;2023-07-29T03:49:14;14.90;99.90
6210;DHT22;3138;52.550;13.148;2023-07-29T03:51:41;14.80;99.90
6210;DHT22;3138;52.550;13.148;2023-07-29T03:54:08;14.80;99.90
6210;DHT22;3138;52.550;13.148;2023-07-29T03:56:36;14.80;99.90
6210;DHT22;3138;52.550;13.148;2023-07-29T03:59:04;14.80;99.90
6210;DHT22;3138;52.550;13.148;2023-07-29T04:01:31;14.80;99.90
6210;DHT22;3138;52.550;13.148;2023-07-29T04:03:58;14.80;99.90
6210;DHT22;3138;52.550;13.148;2023-07-29T04:06:25;14.80;99.90
6210;DHT22;3138;52.550;13.148;2023-07-29T04:08:53;14.80;99.90
6210;DHT22;3138;52.550;13.148;2023-07-29T04:11:20;14.90;99.90
6210;DHT22;3138;52.550;13.148;2023-07-29T04:13:48;15.00;99.90
6210;DHT22;3138;52.550;13.148;2023-07-29T04:16:15;15.00;99.90
6210;DHT22;3138;52.550;13.148;2023-07-29T04:18:42;15.30;99.90
6210;DHT22;3138;52.550;13.148;2023-07-29T04:21:09;15.70;99.90
6210;DHT22;3138;52.550;13.148;2023-07-29T04:23:35;16.50;99.90
6210;DHT22;3138;52.550;13.148;2023-07-29T04:26:02;17.30;99.90
6210;DHT22;3138;52.550;13.148;2023-07-29T04:28:31;18.10;99.90
6210;DHT22;3138;52.550;13.148;2023-07-29T04:30:59;17.60;99.90
6210;DHT22;3138;52.550;13.148;2023-07-29T04:33:26;17.20;99.90
6210;DHT22;3138;52.550;13.148;2023-07-29T04:35:53;17.20;99.90
6210;DHT22;3138;52.550;13.148;2023-07-29T04:38:20;17.30;99.90
6210;DHT22;3138;52.550;13.148;2023-07-29T04:40:48;17.40;99.90
6210;DHT22;3138;52.550;13.148;2023-07-29T04:43:15;17.30;99.90
6210;DHT22;3138;52.550;13.148;2023-07-29T04:45:43;17.30;99.90
6210;DHT22;3138;52.550;13.148;2023-07-29T04:48:11;17.50;99.90
6210;DHT22;3138;52.550;13.148;2023-07-29T04:50:38;17.70;99.90
6210;DHT22;3138;52.550;13.148;2023-07-29T04:53:05;17.90;99.90
6210;DHT22;3138;52.550;13.148;2023-07-29T04:55:31;18.20;99.90
6210;DHT22;3138;52.550;13.148;2023-07-29T04:57:58;18.10;99.90
6210;DHT22;3138;52.550;13.148;2023-07-29T05:00:26;18.20;99.90
6210;DHT22;3138;52.550;13.148;2023-07-29T05:02:53;18.30;99.90
6210;DHT22;3138;52.550;13.148;2023-07-29T05:05:21;18.30;99.90
6210;DHT22;3138;52.550;13.148;2023-07-29T05:07:48;18.30;99.90
6210;DHT22;3138;52.550;13.148;2023-07-29T05:10:15;18.20;99.90
6210;DHT22;3138;52.550;13.148;2023-07-29T05:12:41;18.20;99.90
6210;DHT22;3138;52.550;13.148;2023-07-29T05:15:09;18.30;99.90
6210;DHT22;3138;52.550;13.148;2023-07-29T05:17:36;18.70;99.90
6210;DHT22;3138;52.550;13.148;2023-07-29T05:20:04;18.80;99.90
6210;DHT22;3138;52.550;13.148;2023-07-29T05:22:33;19.20;99.90
6210;DHT22;3138;52.550;13.148;2023-07-29T05:24:59;19.10;99.90
6210;DHT22;3138;52.550;13.148;2023-07-29T05:27:26;18.90;99.90
6210;DHT22;3138;52.550;13.148;2023-07-29T05:29:53;18.90;99.90
6210;DHT22;3138;52.550;13.148;2023-07-29T05:32:20;18.80;99.90
6210;DHT22;3138;52.550;13.148;2023-07-29T05:34:47;18.80;99.90
6210;DHT22;3138;52.550;13.148;2023-07-29T05:37:13;19.00;99.90
6210;DHT22;3138;52.550;13.148;2023-07-29T05:39:42;19.20;99.90
6210;DHT22;3138;52.550;13.148;2023-07-29T05:42:08;19.20;99.90
6210;DHT22;3138;52.550;13.148;2023-07-29T05:44:35;19.30;99.90
6210;DHT22;3138;52.550;13.148;2023-07-29T05:47:02;19.50;99.90
6210;DHT22;3138;52.550;13.148;2023-07-29T05:49:29;19.70;99.90
6210;DHT22;3138;52.550;13.148;2023-07-29T05:51:56;20.00;99.90
6210;DHT22;3138;52.550;13.148;2023-07-29T05:54:23;20.30;99.90
6210;DHT22;3138;52.550;13.148;2023-07-29T05:56:51;20.50;99.90
6210;DHT22;3138;52.550;13.148;2023-07-29T05:59:17;20.40;99.90
6210;DHT22;3138;52.550;13.148;2023-07-29T06:01:44;20.40;99.90
6210;DHT22;3138;52.550;13.148;2023-07-29T06:04:10;20.30;99.90
6210;DHT22;3138;52.550;13.148;2023-07-29T06:06:37;20.20;99.90
6210;DHT22;3138;52.550;13.148;2023-07-29T06:09:04;20.50;99.90
6210;DHT22;3138;52.550;13.148;2023-07-29T06:11:30;20.70;99.90
6210;DHT22;3138;52.550;13.148;2023-07-29T06:13:59;20.80;99.90
6210;DHT22;3138;52.550;13.148;2023-07-29T06:16:25;21.20;99.90
6210;DHT22;3138;52.550;13.148;2023-07-29T06:18:52;21.40;99.90
6210;DHT22;3138;52.550;13.148;2023-07-29T06:21:19;21.60;99.90
6210;DHT22;3138;52.550;13.148;2023-07-29T06:23:46;21.80;99.90
6210;DHT22;3138;52.550;13.148;2023-07-29T06:26:13;21.80;99.90
6210;DHT22;3138;52.550;13.148;2023-07-29T06:28:40;22.10;99.90
6210;DHT22;3138;52.550;13.148;2023-07-29T06:31:08;22.20;99.90
6210;DHT22;3138;52.550;13.148;2023-07-29T06:33:35;22.40;99.90
6210;DHT22;3138;52.550;13.148;2023-07-29T06:36:02;22.20;99.90
6210;DHT22;3138;52.550;13.148;2023-07-29T06:38:29;22.30;99.90
6210;DHT22;3138;52.550;13.148;2023-07-29T06:40:56;22.30;99.90
6210;DHT22;3138;52.550;13.148;2023-07-29T06:43:22;22.50;99.90
6210;DHT22;3138;52.550;13.148;2023-07-29T06:45:49;22.80;99.90
6210;DHT22;3138;52.550;13.148;2023-07-29T06:48:18;23.00;99.90
6210;DHT22;3138;52.550;13.148;2023-07-29T06:50:45;23.00;99.90
6210;DHT22;3138;52.550;13.148;2023-07-29T06:53:12;22.60;99.90
6210;DHT22;3138;52.550;13.148;2023-07-29T06:55:39;22.20;99.90
6210;DHT22;3138;52.550;13.148;2023-07-29T06:58:06;22.00;99.90
6210;DHT22;3138;52.550;13.148;2023-07-29T07:00:33;21.90;99.90
6210;DHT22;3138;52.550;13.148;2023-07-29T07:02:59;22.40;99.90
6210;DHT22;3138;52.550;13.148;2023-07-29T07:05:28;22.50;99.90
6210;DHT22;3138;52.550;13.148;2023-07-29T07:07:54;22.60;99.90
6210;DHT22;3138;52.550;13.148;2023-07-29T07:10:21;22.50;99.90
6210;DHT22;3138;52.550;13.148;2023-07-29T07:12:48;22.30;99.90
6210;DHT22;3138;52.550;13.148;2023-07-29T07:15:15;22.10;99.90
6210;DHT22;3138;52.550;13.148;2023-07-29T07:17:42;21.90;99.90
6210;DHT22;3138;52.550;13.148;2023-07-29T07:20:09;22.00;99.90
6210;DHT22;3138;52.550;13.148;2023-07-29T07:22:38;22.30;99.90
6210;DHT22;3138;52.550;13.148;2023-07-29T07:25:06;22.20;99.90
6210;DHT22;3138;52.550;13.148;2023-07-29T07:27:33;22.40;99.90
6210;DHT22;3138;52.550;13.148;2023-07-29T07:30:00;22.70;99.90
6210;DHT22;3138;52.550;13.148;2023-07-29T07:32:27;22.80;99.90
6210;DHT22;3138;52.550;13.148;2023-07-29T07:34:53;23.10;99.90
6210;DHT22;3138;52.550;13.148;2023-07-29T07:37:20;23.30;99.90
6210;DHT22;3138;52.550;13.148;2023-07-29T07:39:49;23.30;99.90
6210;DHT22;3138;52.550;13.148;2023-07-29T07:42:15;23.50;99.90
6210;DHT22;3138;52.550;13.148;2023-07-29T07:44:42;23.40;99.90
6210;DHT22;3138;52.550;13.148;2023-07-29T07:47:09;23.80;99.90
6210;DHT22;3138;52.550;13.148;2023-07-29T07:49:36;23.70;99.90
6210;DHT22;3138;52.550;13.148;2023-07-29T07:52:03;24.30;99.90
6210;DHT22;3138;52.550;13.148;2023-07-29T07:54:30;24.80;99.90
6210;DHT22;3138;52.550;13.148;2023-07-29T07:56:58;24.70;99.90
6210;DHT22;3138;52.550;13.148;2023-07-29T07:59:25;24.50;99.90
6210;DHT22;3138;52.550;13.148;2023-07-29T08:01:52;24.70;99.90
6210;DHT22;3138;52.550;13.148;2023-07-29T08:04:18;24.80;99.90
6210;DHT22;3138;52.550;13.148;2023-07-29T08:06:45;25.20;99.90
6210;DHT22;3138;52.550;13.148;2023-07-29T08:09:12;24.90;99.90
6210;DHT22;3138;52.550;13.148;2023-07-29T08:11:39;24.60;99.90
6210;DHT22;3138;52.550;13.148;2023-07-29T08:14:07;24.90;99.90
6210;DHT22;3138;52.550;13.148;2023-07-29T08:16:34;24.90;99.90
6210;DHT22;3138;52.550;13.148;2023-07-29T08:19:00;24.80;99.90
6210;DHT22;3138;52.550;13.148;2023-07-29T08:21:28;24.70;99.90
6210;DHT22;3138;52.550;13.148;2023-07-29T08:23:55;24.60;99.90
6210;DHT22;3138;52.550;13.148;2023-07-29T08:26:21;24.40;99.90
6210;DHT22;3138;52.550;13.148;2023-07-29T08:28:48;24.50;99.90
6210;DHT22;3138;52.550;13.148;2023-07-29T08:31:17;24.40;99.90
6210;DHT22;3138;52.550;13.148;2023-07-29T08:33:44;24.80;99.90
6210;DHT22;3138;52.550;13.148;2023-07-29T08:36:11;25.00;99.90
6210;DHT22;3138;52.550;13.148;2023-07-29T08:38:38;25.00;99.90
6210;DHT22;3138;52.550;13.148;2023-07-29T08:41:12;25.10;99.90
6210;DHT22;3138;52.550;13.148;2023-07-29T08:43:44;24.90;99.90
6210;DHT22;3138;52.550;13.148;2023-07-29T08:46:17;24.80;99.90
6210;DHT22;3138;52.550;13.148;2023-07-29T08:48:46;24.60;99.90
6210;DHT22;3138;52.550;13.148;2023-07-29T08:51:13;24.50;99.90
6210;DHT22;3138;52.550;13.148;2023-07-29T08:53:41;24.30;99.90
6210;DHT22;3138;52.550;13.148;2023-07-29T08:56:08;24.40;99.90
6210;DHT22;3138;52.550;13.148;2023-07-29T08:58:36;24.40;99.90
6210;DHT22;3138;52.550;13.148;2023-07-29T09:01:03;24.20;99.90
6210;DHT22;3138;52.550;13.148;2023-07-29T09:03:31;24.30;99.90
6210;DHT22;3138;52.550;13.148;2023-07-29T09:05:58;24.30;99.90
6210;DHT22;3138;52.550;13.148;2023-07-29T09:08:26;24.40;99.90
6210;DHT22;3138;52.550;13.148;2023-07-29T09:10:53;24.40;99.90
6210;DHT22;3138;52.550;13.148;2023-07-29T09:13:23;24.60;99.90
6210;DHT22;3138;52.550;13.148;2023-07-29T09:15:54;24.50;99.90
6210;DHT22;3138;52.550;13.148;2023-07-29T09:18:21;24.70;99.90
6210;DHT22;3138;52.550;13.148;2023-07-29T09:20:50;24.70;99.90
6210;DHT22;3138;52.550;13.148;2023-07-29T09:23:17;24.50;99.90
6210;DHT22;3138;52.550;13.148;2023-07-29T09:25:46;24.60;99.90
6210;DHT22;3138;52.550;13.148;2023-07-29T09:28:14;24.70;99.90
6210;DHT22;3138;52.550;13.148;2023-07-29T09:30:46;25.00;99.90
6210;DHT22;3138;52.550;13.148;2023-07-29T09:33:13;24.90;99.90
6210;DHT22;3138;52.550;13.148;2023-07-29T09:35:39;25.10;99.90
6210;DHT22;3138;52.550;13.148;2023-07-29T09:38:08;25.10;99.90
6210;DHT22;3138;52.550;13.148;2023-07-29T09:40:35;25.30;99.90
6210;DHT22;3138;52.550;13.148;2023-07-29T09:43:04;25.20;99.90
6210;DHT22;3138;52.550;13.148;2023-07-29T09:45:33;25.10;99.90
6210;DHT22;3138;52.550;13.148;2023-07-29T09:48:02;25.20;99.90
6210;DHT22;3138;52.550;13.148;2023-07-29T09:50:30;25.30;99.90
6210;DHT22;3138;52.550;13.148;2023-07-29T09:52:57;25.50;99.90
6210;DHT22;3138;52.550;13.148;2023-07-29T09:55:26;25.80;99.90
6210;DHT22;3138;52.550;13.148;2023-07-29T09:57:55;25.50;99.90
6210;DHT22;3138;52.550;13.148;2023-07-29T10:00:23;25.20;99.90
6210;DHT22;3138;52.550;13.148;2023-07-29T10:02:51;25.00;99.90
6210;DHT22;3138;52.550;13.148;2023-07-29T10:05:20;24.80;99.90
6210;DHT22;3138;52.550;13.148;2023-07-29T10:07:49;24.70;99.90
6210;DHT22;3138;52.550;13.148;2023-07-29T10:10:16;24.40;99.90
6210;DHT22;3138;52.550;13.148;2023-07-29T10:12:45;24.00;99.90
6210;DHT22;3138;52.550;13.148;2023-07-29T10:15:12;23.80;99.90
6210;DHT22;3138;52.550;13.148;2023-07-29T10:17:40;23.60;99.90
6210;DHT22;3138;52.550;13.148;2023-07-29T10:20:08;23.50;99.90
6210;DHT22;3138;52.550;13.148;2023-07-29T10:22:37;23.30;99.90
6210;DHT22;3138;52.550;13.148;2023-07-29T10:25:07;22.40;99.90
6210;DHT22;3138;52.550;13.148;2023-07-29T10:27:40;21.60;99.90
6210;DHT22;3138;52.550;13.148;2023-07-29T10:30:11;21.50;99.90
6210;DHT22;3138;52.550;13.148;2023-07-29T10:32:39;21.10;99.90
6210;DHT22;3138;52.550;13.148;2023-07-29T10:35:08;20.90;99.90
6210;DHT22;3138;52.550;13.148;2023-07-29T10:37:35;20.80;99.90
6210;DHT22;3138;52.550;13.148;2023-07-29T10:40:06;20.90;99.90
6210;DHT22;3138;52.550;13.148;2023-07-29T10:42:33;21.00;99.90
6210;DHT22;3138;52.550;13.148;2023-07-29T10:45:02;21.20;99.90
6210;DHT22;3138;52.550;13.148;2023-07-29T10:47:44;21.30;99.90
6210;DHT22;3138;52.550;13.148;2023-07-29T10:50:17;21.20;99.90
6210;DHT22;3138;52.550;13.148;2023-07-29T10:52:49;21.10;99.90
6210;DHT22;3138;52.550;13.148;2023-07-29T10:55:27;20.80;99.90
6210;DHT22;3138;52.550;13.148;2023-07-29T10:58:09;20.60;99.90
6210;DHT22;3138;52.550;13.148;2023-07-29T11:00:38;20.60;99.90
6210;DHT22;3138;52.550;13.148;2023-07-29T11:03:07;20.40;99.90
6210;DHT22;3138;52.550;13.148;2023-07-29T11:05:45;20.10;99.90
6210;DHT22;3138;52.550;13.148;2023-07-29T11:08:30;20.00;99.90
6210;DHT22;3138;52.550;13.148;2023-07-29T11:11:00;20.10;99.90
6210;DHT22;3138;52.550;13.148;2023-07-29T11:13:27;20.10;99.90
6210;DHT22;3138;52.550;13.148;2023-07-29T11:15:55;20.20;99.90
6210;DHT22;3138;52.550;13.148;2023-07-29T11:18:26;20.30;99.90
6210;DHT22;3138;52.550;13.148;2023-07-29T11:20:54;20.40;99.90
6210;DHT22;3138;52.550;13.148;2023-07-29T11:23:27;20.40;99.90
6210;DHT22;3138;52.550;13.148;2023-07-29T11:25:55;20.50;99.90
6210;DHT22;3138;52.550;13.148;2023-07-29T11:28:21;20.70;99.90
6210;DHT22;3138;52.550;13.148;2023-07-29T11:30:49;20.80;99.90
6210;DHT22;3138;52.550;13.148;2023-07-29T11:33:18;20.90;99.90
6210;DHT22;3138;52.550;13.148;2023-07-29T11:35:47;21.20;99.90
6210;DHT22;3138;52.550;13.148;2023-07-29T11:38:18;21.20;99.90
6210;DHT22;3138;52.550;13.148;2023-07-29T11:40:58;21.30;99.90
6210;DHT22;3138;52.550;13.148;2023-07-29T11:43:25;21.40;99.90
6210;DHT22;3138;52.550;13.148;2023-07-29T11:45:53;21.50;99.90
6210;DHT22;3138;52.550;13.148;2023-07-29T11:48:26;21.50;99.90
6210;DHT22;3138;52.550;13.148;2023-07-29T11:50:55;21.60;99.90
6210;DHT22;3138;52.550;13.148;2023-07-29T11:53:22;21.60;99.90
6210;DHT22;3138;52.550;13.148;2023-07-29T11:55:51;21.60;99.90
6210;DHT22;3138;52.550;13.148;2023-07-29T11:58:18;21.80;99.90
6210;DHT22;3138;52.550;13.148;2023-07-29T12:00:45;21.80;99.90
6210;DHT22;3138;52.550;13.148;2023-07-29T12:03:13;22.00;99.90
6210;DHT22;3138;52.550;13.148;2023-07-29T12:05:41;22.20;99.90
6210;DHT22;3138;52.550;13.148;2023-07-29T12:08:10;22.10;99.90
6210;DHT22;3138;52.550;13.148;2023-07-29T12:10:37;22.00;99.90
6210;DHT22;3138;52.550;13.148;2023-07-29T12:13:04;22.10;99.90
6210;DHT22;3138;52.550;13.148;2023-07-29T12:15:31;22.10;99.90
6210;DHT22;3138;52.550;13.148;2023-07-29T12:17:59;22.10;99.90
6210;DHT22;3138;52.550;13.148;2023-07-29T12:20:26;22.10;99.90
6210;DHT22;3138;52.550;13.148;2023-07-29T12:22:56;22.10;99.90
6210;DHT22;3138;52.550;13.148;2023-07-29T12:25:25;22.20;99.90
6210;DHT22;3138;52.550;13.148;2023-07-29T12:27:52;22.50;99.90
6210;DHT22;3138;52.550;13.148;2023-07-29T12:30:20;23.00;99.90
6210;DHT22;3138;52.550;13.148;2023-07-29T12:32:48;23.10;99.90
6210;DHT22;3138;52.550;13.148;2023-07-29T12:35:15;22.80;99.90
6210;DHT22;3138;52.550;13.148;2023-07-29T12:37:42;23.20;99.90
6210;DHT22;3138;52.550;13.148;2023-07-29T12:40:21;23.10;99.90
6210;DHT22;3138;52.550;13.148;2023-07-29T12:42:49;23.30;99.90
6210;DHT22;3138;52.550;13.148;2023-07-29T12:45:17;23.60;99.90
6210;DHT22;3138;52.550;13.148;2023-07-29T12:47:44;24.20;99.90
6210;DHT22;3138;52.550;13.148;2023-07-29T12:50:11;24.30;99.90
6210;DHT22;3138;52.550;13.148;2023-07-29T12:52:37;24.00;99.90
6210;DHT22;3138;52.550;13.148;2023-07-29T12:55:05;24.30;99.90
6210;DHT22;3138;52.550;13.148;2023-07-29T12:57:34;24.50;99.90
6210;DHT22;3138;52.550;13.148;2023-07-29T13:00:03;24.60;99.90
6210;DHT22;3138;52.550;13.148;2023-07-29T13:02:31;23.80;99.90
6210;DHT22;3138;52.550;13.148;2023-07-29T13:04:58;23.60;99.90
6210;DHT22;3138;52.550;13.148;2023-07-29T13:07:24;23.50;99.90
6210;DHT22;3138;52.550;13.148;2023-07-29T13:09:51;23.70;99.90
6210;DHT22;3138;52.550;13.148;2023-07-29T13:12:18;23.70;99.90
6210;DHT22;3138;52.550;13.148;2023-07-29T13:14:45;24.10;99.90
6210;DHT22;3138;52.550;13.148;2023-07-29T13:17:13;24.50;99.90
6210;DHT22;3138;52.550;13.148;2023-07-29T13:19:40;24.50;99.90
6210;DHT22;3138;52.550;13.148;2023-07-29T13:22:07;24.60;99.90
6210;DHT22;3138;52.550;13.148;2023-07-29T13:24:34;24.10;99.90
6210;DHT22;3138;52.550;13.148;2023-07-29T13:27:00;23.90;99.90
6210;DHT22;3138;52.550;13.148;2023-07-29T13:29:27;24.10;99.90
6210;DHT22;3138;52.550;13.148;2023-07-29T13:31:54;24.10;99.90
6210;DHT22;3138;52.550;13.148;2023-07-29T13:34:22;24.60;99.90
6210;DHT22;3138;52.550;13.148;2023-07-29T13:36:49;24.60;99.90
6210;DHT22;3138;52.550;13.148;2023-07-29T13:39:16;24.70;99.90
6210;DHT22;3138;52.550;13.148;2023-07-29T13:41:43;24.50;99.90
6210;DHT22;3138;52.550;13.148;2023-07-29T13:44:10;24.60;99.90
6210;DHT22;3138;52.550;13.148;2023-07-29T13:46:37;24.80;99.90
6210;DHT22;3138;52.550;13.148;2023-07-29T13:49:04;24.90;99.90
6210;DHT22;3138;52.550;13.148;2023-07-29T13:51:32;25.10;99.90
6210;DHT22;3138;52.550;13.148;2023-07-29T13:53:59;24.90;99.90
6210;DHT22;3138;52.550;13.148;2023-07-29T13:56:25;24.80;99.90
6210;DHT22;3138;52.550;13.148;2023-07-29T13:58:52;25.20;99.90
6210;DHT22;3138;52.550;13.148;2023-07-29T14:01:19;24.90;99.90
6210;DHT22;3138;52.550;13.148;2023-07-29T14:03:46;24.60;99.90
6210;DHT22;3138;52.550;13.148;2023-07-29T14:06:13;25.00;99.90
6210;DHT22;3138;52.550;13.148;2023-07-29T14:08:41;25.00;99.90
6210;DHT22;3138;52.550;13.148;2023-07-29T14:11:08;25.30;99.90
6210;DHT22;3138;52.550;13.148;2023-07-29T14:13:34;25.00;99.90
6210;DHT22;3138;52.550;13.148;2023-07-29T14:16:01;24.50;99.90
6210;DHT22;3138;52.550;13.148;2023-07-29T14:18:29;24.20;99.90
6210;DHT22;3138;52.550;13.148;2023-07-29T14:20:55;24.60;99.90
6210;DHT22;3138;52.550;13.148;2023-07-29T14:23:22;25.00;99.90
6210;DHT22;3138;52.550;13.148;2023-07-29T14:25:50;24.60;99.90
6210;DHT22;3138;52.550;13.148;2023-07-29T14:28:17;24.20;99.90
6210;DHT22;3138;52.550;13.148;2023-07-29T14:30:44;24.00;99.90
6210;DHT22;3138;52.550;13.148;2023-07-29T14:33:11;24.10;99.90
6210;DHT22;3138;52.550;13.148;2023-07-29T14:35:38;24.30;99.90
6210;DHT22;3138;52.550;13.148;2023-07-29T14:38:05;24.60;99.90
6210;DHT22;3138;52.550;13.148;2023-07-29T14:40:32;24.80;99.90
6210;DHT22;3138;52.550;13.148;2023-07-29T14:43:00;24.80;99.90
6210;DHT22;3138;52.550;13.148;2023-07-29T14:45:27;24.70;99.90
6210;DHT22;3138;52.550;13.148;2023-07-29T14:47:54;24.70;99.90
6210;DHT22;3138;52.550;13.148;2023-07-29T14:50:21;24.40;99.90
6210;DHT22;3138;52.550;13.148;2023-07-29T14:52:47;24.20;99.90
6210;DHT22;3138;52.550;13.148;2023-07-29T14:55:14;24.00;99.90
6210;DHT22;3138;52.550;13.148;2023-07-29T14:57:41;23.70;99.90
6210;DHT22;3138;52.550;13.148;2023-07-29T15:00:11;23.70;99.90
6210;DHT22;3138;52.550;13.148;2023-07-29T15:02:38;23.50;99.90
6210;DHT22;3138;52.550;13.148;2023-07-29T15:05:06;23.50;99.90
6210;DHT22;3138;52.550;13.148;2023-07-29T15:07:33;23.40;99.90
6210;DHT22;3138;52.550;13.148;2023-07-29T15:10:00;23.20;99.90
6210;DHT22;3138;52.550;13.148;2023-07-29T15:12:26;23.00;99.90
6210;DHT22;3138;52.550;13.148;2023-07-29T15:14:53;22.40;99.90
6210;DHT22;3138;52.550;13.148;2023-07-29T15:17:21;20.00;99.90
6210;DHT22;3138;52.550;13.148;2023-07-29T15:19:48;18.80;99.90
6210;DHT22;3138;52.550;13.148;2023-07-29T15:22:16;18.20;99.90
6210;DHT22;3138;52.550;13.148;2023-07-29T15:24:44;17.80;99.90
6210;DHT22;3138;52.550;13.148;2023-07-29T15:27:12;17.80;99.90
6210;DHT22;3138;52.550;13.148;2023-07-29T15:29:38;17.80;99.90
6210;DHT22;3138;52.550;13.148;2023-07-29T15:32:06;17.90;99.90
6210;DHT22;3138;52.550;13.148;2023-07-29T15:34:34;17.90;99.90
6210;DHT22;3138;52.550;13.148;2023-07-29T15:37:01;18.10;99.90
6210;DHT22;3138;52.550;13.148;2023-07-29T15:39:28;18.10;99.90
6210;DHT22;3138;52.550;13.148;2023-07-29T15:41:56;18.30;99.90
6210;DHT22;3138;52.550;13.148;2023-07-29T15:44:23;18.60;99.90
6210;DHT22;3138;52.550;13.148;2023-07-29T15:46:55;18.90;99.90
6210;DHT22;3138;52.550;13.148;2023-07-29T15:49:22;19.30;99.90